createdAt,value
2024-02-15T00:28:21.334Z,8.20
2024-02-15T00:30:49.608Z,8.20
2024-02-15T00:33:16.915Z,8.10
2024-02-15T00:35:44.334Z,8.10
2024-02-15T00:38:12.009Z,8.10
2024-02-15T00:40:38.888Z,8.10
2024-02-15T00:43:07.201Z,8.20
2024-02-15T00:45:34.023Z,8.10
2024-02-15T00:48:01.177Z,8.00
2024-02-15T00:50:28.575Z,8.00
2024-02-15T00:52:55.694Z,8.00
2024-02-15T00:55:22.841Z,8.00
2024-02-15T00:57:49.675Z,8.20
2024-02-15T01:00:17.083Z,8.00
2024-02-15T01:02:44.231Z,8.00
2024-02-15T01:05:11.406Z,8.00
2024-02-15T01:07:38.601Z,8.10
2024-02-15T01:10:07.475Z,8.00
2024-02-15T01:12:34.406Z,8.00
2024-02-15T01:15:01.934Z,8.10
2024-02-15T01:17:28.932Z,8.10
2024-02-15T01:19:57.081Z,8.10
2024-02-15T01:22:26.523Z,8.10
2024-02-15T01:24:53.677Z,8.20
2024-02-15T01:27:20.777Z,8.10
2024-02-15T01:29:47.655Z,8.10
2024-02-15T01:32:14.830Z,8.00
2024-02-15T01:34:43.595Z,8.00
2024-02-15T01:37:11.012Z,8.20
2024-02-15T01:39:38.091Z,8.10
2024-02-15T01:42:05.186Z,8.00
2024-02-15T01:44:32.400Z,8.00
2024-02-15T01:47:00.234Z,8.00
2024-02-15T01:49:29.635Z,8.00
2024-02-15T01:51:58.424Z,8.00
2024-02-15T01:54:26.731Z,8.00
2024-02-15T01:56:54.624Z,8.10
2024-02-15T01:59:24.908Z,8.00
2024-02-15T02:01:52.068Z,8.00
2024-02-15T02:04:19.143Z,8.00
2024-02-15T02:06:45.988Z,8.00
2024-02-15T02:09:17.115Z,8.00
2024-02-15T02:11:47.855Z,8.00
2024-02-15T02:14:15.020Z,8.00
2024-02-15T02:16:42.361Z,8.00
2024-02-15T02:19:10.521Z,8.00
2024-02-15T02:21:41.357Z,8.10
2024-02-15T02:24:23.145Z,8.00
2024-02-15T02:26:55.071Z,8.00
2024-02-15T02:29:22.683Z,8.00
2024-02-15T02:31:50.289Z,8.00
2024-02-15T02:34:17.569Z,8.10
2024-02-15T02:36:48.976Z,8.20
2024-02-15T02:39:15.907Z,8.00
2024-02-15T02:41:43.878Z,8.10
2024-02-15T02:44:10.903Z,8.00
2024-02-15T02:46:38.545Z,8.00
2024-02-15T02:49:05.548Z,8.00
2024-02-15T02:51:32.755Z,8.00
2024-02-15T02:53:59.626Z,8.00
2024-02-15T02:56:26.669Z,8.00
2024-02-15T02:58:54.596Z,7.80
2024-02-15T03:01:26.199Z,7.90
2024-02-15T03:03:57.555Z,7.90
2024-02-15T03:06:26.173Z,7.90
2024-02-15T03:08:56.293Z,8.00
2024-02-15T03:11:24.421Z,8.00
2024-02-15T03:13:51.304Z,8.00
2024-02-15T03:16:18.431Z,8.00
2024-02-15T03:18:45.449Z,8.10
2024-02-15T03:21:12.592Z,8.00
2024-02-15T03:23:39.560Z,8.00
2024-02-15T03:26:10.331Z,8.00
2024-02-15T03:28:38.967Z,8.00
2024-02-15T03:31:06.094Z,8.10
2024-02-15T03:33:36.360Z,8.10
2024-02-15T03:36:05.041Z,8.00
2024-02-15T03:38:33.075Z,8.10
2024-02-15T03:41:01.009Z,8.10
2024-02-15T03:43:28.893Z,8.10
2024-02-15T03:45:55.698Z,8.10
2024-02-15T03:48:22.980Z,8.10
2024-02-15T03:50:50.717Z,8.10
2024-02-15T03:53:18.106Z,8.10
2024-02-15T03:55:45.468Z,8.10
2024-02-15T03:58:13.598Z,8.10
2024-02-15T04:00:41.806Z,8.10
2024-02-15T04:03:09.131Z,8.00
2024-02-15T04:05:36.076Z,8.20
2024-02-15T04:08:04.280Z,8.30
2024-02-15T04:10:31.480Z,8.10
2024-02-15T04:12:59.600Z,8.10
2024-02-15T04:15:26.959Z,8.20
2024-02-15T04:17:57.736Z,8.10
2024-02-15T04:20:24.920Z,8.10
2024-02-15T04:22:51.833Z,8.20
2024-02-15T04:25:20.215Z,8.10
2024-02-15T04:27:48.407Z,8.20
2024-02-15T04:30:17.805Z,8.10
2024-02-15T04:32:45.416Z,8.10
2024-02-15T04:35:14.877Z,8.10
2024-02-15T04:37:42.766Z,8.10
2024-02-15T04:40:11.497Z,8.00
2024-02-15T04:42:41.422Z,8.00
2024-02-15T04:45:10.031Z,8.10
2024-02-15T04:47:37.272Z,8.00
2024-02-15T04:50:07.649Z,8.00
2024-02-15T04:52:34.820Z,8.00
2024-02-15T04:55:02.687Z,8.00
2024-02-15T04:57:29.578Z,8.00
2024-02-15T04:59:56.997Z,8.00
2024-02-15T05:02:25.616Z,7.90
2024-02-15T05:04:57.996Z,8.00
2024-02-15T05:07:25.071Z,7.90
2024-02-15T05:09:54.190Z,7.90
2024-02-15T05:12:28.666Z,7.90
2024-02-15T05:14:56.190Z,7.90
2024-02-15T05:17:23.503Z,7.80
2024-02-15T05:19:51.346Z,7.80
2024-02-15T05:22:19.985Z,7.70
2024-02-15T05:24:46.973Z,7.80
2024-02-15T05:27:14.389Z,7.70
2024-02-15T05:29:44.745Z,7.60
2024-02-15T05:32:12.225Z,7.60
2024-02-15T05:34:41.388Z,7.70
2024-02-15T05:37:08.664Z,7.60
2024-02-15T05:39:35.549Z,7.60
2024-02-15T05:42:06.351Z,7.50
2024-02-15T05:44:33.239Z,7.50
2024-02-15T05:47:00.329Z,7.50
2024-02-15T05:49:29.908Z,7.50
2024-02-15T05:51:57.663Z,7.60
2024-02-15T05:54:25.219Z,7.60
2024-02-15T05:56:55.021Z,7.70
2024-02-15T05:59:22.502Z,7.60
2024-02-15T06:01:49.753Z,7.60
2024-02-15T06:04:18.266Z,7.60
2024-02-15T06:06:50.642Z,7.60
2024-02-15T06:09:18.833Z,7.60
2024-02-15T06:11:47.285Z,7.70
2024-02-15T06:14:14.777Z,7.60
2024-02-15T06:16:45.936Z,7.70
2024-02-15T06:19:13.100Z,7.70
2024-02-15T06:21:40.603Z,7.70
2024-02-15T06:24:08.569Z,7.80
2024-02-15T06:26:35.945Z,7.80
2024-02-15T06:29:21.365Z,7.80
2024-02-15T06:32:07.076Z,7.90
2024-02-15T06:34:52.407Z,7.80
2024-02-15T06:37:57.308Z,7.90
2024-02-15T06:40:24.349Z,8.00
2024-02-15T06:42:53.118Z,8.00
2024-02-15T06:45:21.277Z,8.00
2024-02-15T06:47:48.675Z,7.90
2024-02-15T06:50:16.239Z,8.10
2024-02-15T06:52:43.372Z,8.10
2024-02-15T06:55:13.319Z,8.20
2024-02-15T06:57:43.583Z,8.20
2024-02-15T07:00:16.472Z,8.30
2024-02-15T07:02:46.076Z,8.20
2024-02-15T07:05:13.329Z,8.30
2024-02-15T07:07:40.957Z,8.30
2024-02-15T07:10:09.568Z,8.40
2024-02-15T07:12:37.759Z,8.40
2024-02-15T07:15:10.445Z,8.40
2024-02-15T07:17:42.431Z,8.50
2024-02-15T07:20:16.587Z,8.50
2024-02-15T07:22:43.760Z,8.60
2024-02-15T07:25:11.627Z,8.70
2024-02-15T07:27:38.912Z,8.80
2024-02-15T07:30:07.021Z,9.00
2024-02-15T07:32:36.950Z,9.00
2024-02-15T07:35:04.441Z,9.10
2024-02-15T07:37:31.548Z,9.20
2024-02-15T07:39:58.880Z,9.30
2024-02-15T07:42:27.921Z,9.50
2024-02-15T07:44:54.795Z,9.20
2024-02-15T07:47:25.677Z,9.40
2024-02-15T07:49:52.688Z,9.10
2024-02-15T07:52:20.272Z,9.20
2024-02-15T07:54:47.939Z,9.30
2024-02-15T07:57:15.387Z,9.40
2024-02-15T07:59:43.671Z,9.30
2024-02-15T08:02:10.632Z,9.30
2024-02-15T08:04:42.412Z,9.40
2024-02-15T08:07:12.411Z,9.40
2024-02-15T08:09:42.024Z,9.40
2024-02-15T08:12:10.842Z,9.50
2024-02-15T08:14:37.755Z,9.60
2024-02-15T08:17:05.076Z,9.60
2024-02-15T08:19:32.135Z,9.60
2024-02-15T08:22:06.107Z,9.70
2024-02-15T08:24:32.972Z,9.70
2024-02-15T08:27:01.305Z,9.70
2024-02-15T08:29:28.560Z,9.80
2024-02-15T08:31:56.232Z,9.80
2024-02-15T08:34:23.434Z,9.80
2024-02-15T08:36:50.590Z,10.00
2024-02-15T08:39:18.854Z,9.90
2024-02-15T08:41:46.018Z,9.90
2024-02-15T08:44:16.817Z,10.10
2024-02-15T08:46:44.028Z,10.10
2024-02-15T08:49:13.615Z,10.10
2024-02-15T08:51:41.221Z,10.10
2024-02-15T08:54:08.450Z,10.20
2024-02-15T08:56:37.378Z,10.30
2024-02-15T08:59:05.180Z,10.50
2024-02-15T09:01:32.145Z,10.60
2024-02-15T09:03:59.635Z,10.90
2024-02-15T09:06:27.352Z,11.00
2024-02-15T09:08:54.532Z,11.20
2024-02-15T09:11:21.491Z,11.30
2024-02-15T09:13:51.086Z,11.30
2024-02-15T09:16:18.257Z,11.50
2024-02-15T09:18:47.081Z,11.60
2024-02-15T09:21:15.845Z,11.70
2024-02-15T09:23:43.144Z,11.70
2024-02-15T09:26:11.287Z,11.80
2024-02-15T09:28:38.779Z,11.80
2024-02-15T09:31:05.587Z,11.90
2024-02-15T09:33:32.508Z,11.90
2024-02-15T09:35:59.722Z,11.90
2024-02-15T09:38:26.865Z,11.90
2024-02-15T09:40:53.990Z,11.80
2024-02-15T09:43:23.512Z,11.70
2024-02-15T09:45:51.000Z,11.70
2024-02-15T09:48:19.803Z,11.70
2024-02-15T09:50:48.496Z,11.60
2024-02-15T09:53:17.009Z,11.80
2024-02-15T09:55:44.692Z,11.70
2024-02-15T09:58:13.998Z,11.70
2024-02-15T10:00:41.810Z,11.80
2024-02-15T10:03:09.824Z,11.80
2024-02-15T10:05:37.322Z,11.80
2024-02-15T10:08:05.040Z,12.00
2024-02-15T10:10:34.942Z,12.20
2024-02-15T10:13:03.036Z,12.30
2024-02-15T10:15:35.124Z,12.50
2024-02-15T10:18:04.816Z,12.40
2024-02-15T10:20:32.543Z,12.40
2024-02-15T10:23:02.422Z,12.30
2024-02-15T10:25:30.586Z,12.50
2024-02-15T10:28:11.946Z,12.60
2024-02-15T10:30:47.180Z,12.70
2024-02-15T10:33:26.925Z,12.70
2024-02-15T10:36:13.007Z,12.70
2024-02-15T10:38:40.487Z,12.80
2024-02-15T10:41:09.618Z,12.80
2024-02-15T10:43:41.232Z,13.00
2024-02-15T10:46:12.338Z,13.10
2024-02-15T10:48:40.168Z,13.40
2024-02-15T10:51:11.883Z,13.90
2024-02-15T10:53:47.069Z,14.00
2024-02-15T10:56:28.608Z,14.10
2024-02-15T10:59:10.587Z,14.20
2024-02-15T11:01:42.704Z,14.00
2024-02-15T11:04:13.684Z,14.00
2024-02-15T11:06:43.267Z,13.20
2024-02-15T11:09:15.225Z,13.20
2024-02-15T11:11:42.825Z,13.20
2024-02-15T11:14:25.601Z,13.20
2024-02-15T11:16:54.154Z,13.50
2024-02-15T11:19:41.921Z,13.10
2024-02-15T11:22:18.090Z,13.30
2024-02-15T11:24:54.159Z,13.50
2024-02-15T11:27:29.466Z,13.60
2024-02-15T11:30:01.663Z,14.00
2024-02-15T11:32:41.644Z,14.10
2024-02-15T11:35:13.583Z,14.00
2024-02-15T11:37:53.731Z,13.80
2024-02-15T11:40:24.672Z,14.00
2024-02-15T11:42:54.801Z,13.50
2024-02-15T11:45:22.691Z,13.40
2024-02-15T11:47:55.195Z,13.50
2024-02-15T11:50:23.948Z,13.30
2024-02-15T11:52:52.852Z,13.40
2024-02-15T11:55:23.681Z,13.30
2024-02-15T11:58:04.281Z,13.60
2024-02-15T12:00:50.943Z,13.80
2024-02-15T12:03:37.729Z,13.80
2024-02-15T12:06:24.001Z,13.80
2024-02-15T12:09:11.573Z,13.60
2024-02-15T12:11:58.178Z,13.80
2024-02-15T12:14:44.899Z,13.60
2024-02-15T12:17:33.999Z,13.80
2024-02-15T12:20:07.889Z,14.10
2024-02-15T12:22:48.356Z,14.30
2024-02-15T12:25:17.618Z,14.20
2024-02-15T12:27:55.037Z,14.40
2024-02-15T12:30:22.734Z,14.40
2024-02-15T12:32:53.716Z,14.10
2024-02-15T12:35:22.262Z,14.20
2024-02-15T12:37:55.265Z,14.20
2024-02-15T12:40:23.465Z,14.00
2024-02-15T12:42:51.273Z,14.30
2024-02-15T12:45:22.961Z,14.30
2024-02-15T12:47:52.387Z,14.40
2024-02-15T12:50:21.433Z,14.40
2024-02-15T12:52:48.858Z,14.50
2024-02-15T12:55:21.089Z,14.90
2024-02-15T12:57:57.961Z,15.00
2024-02-15T13:00:32.989Z,14.70
2024-02-15T13:03:05.816Z,14.50
2024-02-15T13:05:33.774Z,14.40
2024-02-15T13:08:02.450Z,14.40
2024-02-15T13:10:33.207Z,14.30
2024-02-15T13:13:00.446Z,14.30
2024-02-15T13:15:34.936Z,14.60
2024-02-15T13:18:05.731Z,14.70
2024-02-15T13:20:36.358Z,14.40
2024-02-15T13:23:10.592Z,14.40
2024-02-15T13:25:44.827Z,14.40
2024-02-15T13:28:15.139Z,14.60
2024-02-15T13:30:45.093Z,14.50
2024-02-15T13:33:12.828Z,14.40
2024-02-15T13:35:40.154Z,14.40
2024-02-15T13:38:10.207Z,14.40
2024-02-15T13:40:37.356Z,14.30
2024-02-15T13:43:07.003Z,14.30
2024-02-15T13:45:41.415Z,14.30
2024-02-15T13:48:10.496Z,14.30
2024-02-15T13:50:40.751Z,14.40
2024-02-15T13:53:11.059Z,14.20
2024-02-15T13:55:39.406Z,14.30
2024-02-15T13:58:06.549Z,14.20
2024-02-15T14:00:38.300Z,14.20
2024-02-15T14:03:08.331Z,14.20
2024-02-15T14:05:35.858Z,14.20
2024-02-15T14:08:06.821Z,14.30
2024-02-15T14:10:36.558Z,14.30
2024-02-15T14:13:05.020Z,14.20
2024-02-15T14:15:38.701Z,14.20
2024-02-15T14:18:14.634Z,14.10
2024-02-15T14:20:44.686Z,14.10
2024-02-15T14:23:15.721Z,14.10
2024-02-15T14:25:43.977Z,14.30
2024-02-15T14:28:11.193Z,14.20
2024-02-15T14:30:57.151Z,14.10
2024-02-15T14:33:33.098Z,13.90
2024-02-15T14:36:01.867Z,13.80
2024-02-15T14:38:30.636Z,13.60
2024-02-15T14:40:59.391Z,13.60
2024-02-15T14:43:28.493Z,13.60
2024-02-15T14:45:59.760Z,13.50
2024-02-15T14:48:27.213Z,13.50
2024-02-15T14:50:57.695Z,13.40
2024-02-15T14:53:25.567Z,13.40
2024-02-15T14:55:54.160Z,13.50
2024-02-15T14:58:23.886Z,13.50
2024-02-15T15:00:51.041Z,13.50
2024-02-15T15:03:18.665Z,13.50
2024-02-15T15:06:05.340Z,13.50
2024-02-15T15:08:52.206Z,13.50
2024-02-15T15:11:38.444Z,13.40
2024-02-15T15:14:07.175Z,13.50
2024-02-15T15:16:35.629Z,13.40
2024-02-15T15:19:04.462Z,13.40
2024-02-15T15:21:32.046Z,13.40
2024-02-15T15:23:59.167Z,13.30
2024-02-15T15:26:26.281Z,13.20
2024-02-15T15:28:53.635Z,13.20
2024-02-15T15:31:22.151Z,13.10
2024-02-15T15:33:54.250Z,13.10
2024-02-15T15:36:23.195Z,13.10
2024-02-15T15:38:51.858Z,13.10
2024-02-15T15:41:19.700Z,13.10
2024-02-15T15:43:47.701Z,13.00
2024-02-15T15:46:18.048Z,12.90
2024-02-15T15:48:46.010Z,12.90
2024-02-15T15:51:16.302Z,12.90
2024-02-15T15:53:48.199Z,12.80
2024-02-15T15:56:16.178Z,12.80
2024-02-15T15:58:46.266Z,12.80
2024-02-15T16:01:13.703Z,12.80
2024-02-15T16:03:41.366Z,12.70
2024-02-15T16:06:09.385Z,12.70
2024-02-15T16:08:36.760Z,12.60
2024-02-15T16:11:03.704Z,12.50
2024-02-15T16:13:30.850Z,12.40
2024-02-15T16:15:57.940Z,12.30
2024-02-15T16:18:25.436Z,12.20
2024-02-15T16:20:55.104Z,12.10
2024-02-15T16:23:24.242Z,12.00
2024-02-15T16:25:52.660Z,11.90
2024-02-15T16:28:20.290Z,11.80
2024-02-15T16:30:50.039Z,11.70
2024-02-15T16:33:17.039Z,11.60
2024-02-15T16:35:44.972Z,11.50
2024-02-15T16:38:12.161Z,11.50
2024-02-15T16:40:40.470Z,11.50
2024-02-15T16:43:07.582Z,11.50
2024-02-15T16:45:34.872Z,11.40
2024-02-15T16:48:04.086Z,11.20
2024-02-15T16:50:31.637Z,11.30
2024-02-15T16:52:58.904Z,11.10
2024-02-15T16:55:32.402Z,11.20
2024-02-15T16:58:09.921Z,11.40
2024-02-15T17:00:38.558Z,11.20
2024-02-15T17:03:07.076Z,11.20
2024-02-15T17:05:37.074Z,11.10
2024-02-15T17:08:07.734Z,11.00
2024-02-15T17:10:37.046Z,10.90
2024-02-15T17:13:05.508Z,11.00
2024-02-15T17:15:33.020Z,11.00
2024-02-15T17:18:00.141Z,11.00
2024-02-15T17:20:27.230Z,10.90
2024-02-15T17:22:54.328Z,11.00
2024-02-15T17:25:26.559Z,10.90
2024-02-15T17:27:56.937Z,10.80
2024-02-15T17:30:25.750Z,10.70
2024-02-15T17:32:53.566Z,10.60
2024-02-15T17:35:22.389Z,10.50
2024-02-15T17:37:49.840Z,10.40
2024-02-15T17:40:19.288Z,10.60
2024-02-15T17:42:46.523Z,10.40
2024-02-15T17:45:18.216Z,10.30
2024-02-15T17:47:47.529Z,10.20
2024-02-15T17:50:17.156Z,10.20
2024-02-15T17:52:48.893Z,10.10
2024-02-15T17:55:16.749Z,10.20
2024-02-15T17:57:46.524Z,10.20
2024-02-15T18:00:17.955Z,10.40
2024-02-15T18:02:50.589Z,10.50
2024-02-15T18:05:20.398Z,10.50
2024-02-15T18:07:48.334Z,10.60
2024-02-15T18:10:18.269Z,10.60
2024-02-15T18:12:45.417Z,10.60
2024-02-15T18:15:26.045Z,10.50
2024-02-15T18:17:57.065Z,10.40
2024-02-15T18:20:25.194Z,10.50
2024-02-15T18:22:53.556Z,10.40
2024-02-15T18:25:20.665Z,10.30
2024-02-15T18:27:48.097Z,10.30
2024-02-15T18:30:19.884Z,10.10
2024-02-15T18:32:48.160Z,10.20
2024-02-15T18:35:19.205Z,10.20
2024-02-15T18:37:48.053Z,10.20
2024-02-15T18:40:22.868Z,10.30
2024-02-15T18:42:53.074Z,10.20
2024-02-15T18:45:20.481Z,10.20
2024-02-15T18:47:47.906Z,10.20
2024-02-15T18:50:17.635Z,10.20
2024-02-15T18:52:45.822Z,10.20
2024-02-15T18:55:14.259Z,10.10
2024-02-15T18:57:43.661Z,10.00
2024-02-15T19:00:25.262Z,10.00
2024-02-15T19:03:01.252Z,9.90
2024-02-15T19:05:30.352Z,9.90
2024-02-15T19:07:59.077Z,9.90
2024-02-15T19:10:26.640Z,10.00
2024-02-15T19:12:54.858Z,9.90
2024-02-15T19:15:25.024Z,9.90
2024-02-15T19:17:52.986Z,9.90
2024-02-15T19:20:20.299Z,9.80
2024-02-15T19:22:47.520Z,9.80
2024-02-15T19:25:21.936Z,9.80
2024-02-15T19:27:50.015Z,9.80
2024-02-15T19:30:19.816Z,9.80
2024-02-15T19:32:48.244Z,9.90
2024-02-15T19:35:15.662Z,9.70
2024-02-15T19:37:42.595Z,9.60
2024-02-15T19:40:12.944Z,9.60
2024-02-15T19:42:41.239Z,9.50
2024-02-15T19:45:08.689Z,9.60
2024-02-15T19:47:36.212Z,9.50
2024-02-15T19:50:05.170Z,9.50
2024-02-15T19:52:33.043Z,9.40
2024-02-15T19:55:00.002Z,9.40
2024-02-15T19:57:27.487Z,9.30
2024-02-15T19:59:55.578Z,9.40
2024-02-15T20:02:22.643Z,9.40
2024-02-15T20:04:50.737Z,9.30
2024-02-15T20:07:20.078Z,9.30
2024-02-15T20:09:48.855Z,9.50
2024-02-15T20:12:16.333Z,9.30
2024-02-15T20:14:43.743Z,9.30
2024-02-15T20:17:12.118Z,9.30
2024-02-15T20:19:40.384Z,9.40
2024-02-15T20:22:10.527Z,9.20
2024-02-15T20:24:40.759Z,9.10
2024-02-15T20:27:09.366Z,9.20
2024-02-15T20:29:38.590Z,9.10
2024-02-15T20:32:08.864Z,9.10
2024-02-15T20:34:35.852Z,9.10
2024-02-15T20:37:02.716Z,9.00
2024-02-15T20:39:30.884Z,9.00
2024-02-15T20:41:58.099Z,9.00
2024-02-15T20:44:26.398Z,8.80
2024-02-15T20:46:53.407Z,8.80
2024-02-15T20:49:20.565Z,8.90
2024-02-15T20:51:47.496Z,8.90
2024-02-15T20:54:14.588Z,8.80
2024-02-15T20:56:44.442Z,9.00
2024-02-15T20:59:14.519Z,9.10
2024-02-15T21:01:41.683Z,9.00
2024-02-15T21:04:11.834Z,8.90
2024-02-15T21:06:39.515Z,8.80
2024-02-15T21:09:15.395Z,8.90
2024-02-15T21:11:44.789Z,8.90
2024-02-15T21:14:15.563Z,9.00
2024-02-15T21:16:43.546Z,9.00
2024-02-15T21:19:11.216Z,8.90
2024-02-15T21:21:40.733Z,8.90
2024-02-15T21:24:07.887Z,8.90
2024-02-15T21:26:35.985Z,8.90
2024-02-15T21:29:06.268Z,8.80
2024-02-15T21:31:35.507Z,8.90
2024-02-15T21:34:09.628Z,8.80
2024-02-15T21:36:37.024Z,8.90
2024-02-15T21:39:04.302Z,8.80
2024-02-15T21:41:31.458Z,8.70
2024-02-15T21:43:58.278Z,8.70
2024-02-15T21:46:25.498Z,8.70
2024-02-15T21:48:54.365Z,8.70
2024-02-15T21:51:23.345Z,8.70
2024-02-15T21:53:50.562Z,8.70
2024-02-15T21:56:17.786Z,8.70
2024-02-15T21:58:44.937Z,8.70
2024-02-15T22:01:11.851Z,8.70
2024-02-15T22:03:38.720Z,8.60
2024-02-15T22:06:05.976Z,8.60
2024-02-15T22:08:33.045Z,8.50
2024-02-15T22:11:00.247Z,8.50
2024-02-15T22:13:27.349Z,8.50
2024-02-15T22:15:54.192Z,8.40
2024-02-15T22:18:21.373Z,8.30
2024-02-15T22:20:48.605Z,8.30
2024-02-15T22:23:15.465Z,8.30
2024-02-15T22:25:42.631Z,8.30
2024-02-15T22:28:10.188Z,8.20
2024-02-15T22:30:37.462Z,8.10
2024-02-15T22:33:05.973Z,8.20
2024-02-15T22:35:33.212Z,8.20
2024-02-15T22:38:00.034Z,8.30
2024-02-15T22:40:27.142Z,8.10
2024-02-15T22:42:54.159Z,8.20
2024-02-15T22:45:21.048Z,8.10
2024-02-15T22:47:48.111Z,8.10
2024-02-15T22:50:15.285Z,8.10
2024-02-15T22:52:42.131Z,8.10
2024-02-15T22:55:09.446Z,8.10
2024-02-15T22:57:36.272Z,8.10
2024-02-15T23:00:06.815Z,7.90
2024-02-15T23:02:36.624Z,8.10
2024-02-15T23:05:03.789Z,8.00
2024-02-15T23:07:31.417Z,8.10
2024-02-15T23:09:58.295Z,8.00
2024-02-15T23:12:25.905Z,8.10
2024-02-15T23:14:52.959Z,8.10
2024-02-15T23:17:19.886Z,8.00
2024-02-15T23:19:47.082Z,7.90
2024-02-15T23:22:15.185Z,7.90
2024-02-15T23:24:42.027Z,7.70
2024-02-15T23:27:09.192Z,8.00
2024-02-15T23:29:36.524Z,7.80
2024-02-15T23:32:03.496Z,7.60
2024-02-15T23:34:31.691Z,7.50
2024-02-15T23:37:24.956Z,7.50
2024-02-15T23:40:10.959Z,7.40
2024-02-15T23:42:38.145Z,7.50
2024-02-15T23:45:05.980Z,7.50
2024-02-15T23:47:32.847Z,7.40
2024-02-15T23:50:00.027Z,7.50
2024-02-15T23:52:26.927Z,7.50
2024-02-15T23:54:53.811Z,7.50
2024-02-15T23:57:21.875Z,7.50
2024-02-15T23:59:49.017Z,7.50
